createdAt,value
2023-03-17T00:00:53.612Z,0.00
2023-03-17T00:01:53.660Z,0.00
2023-03-17T00:02:53.737Z,0.00
2023-03-17T00:03:53.589Z,0.00
2023-03-17T00:04:53.576Z,0.00
2023-03-17T00:05:53.544Z,0.00
2023-03-17T00:06:53.618Z,0.00
2023-03-17T00:07:53.538Z,0.00
2023-03-17T00:08:53.508Z,0.00
2023-03-17T00:09:53.516Z,0.00
2023-03-17T00:10:53.484Z,0.00
2023-03-17T00:11:53.496Z,0.00
2023-03-17T00:12:53.472Z,0.00
2023-03-17T00:13:53.455Z,0.00
2023-03-17T00:14:53.460Z,0.00
2023-03-17T00:15:53.551Z,0.00
2023-03-17T00:16:53.416Z,0.00
2023-03-17T00:17:53.398Z,0.00
2023-03-17T00:18:53.451Z,0.00
2023-03-17T00:19:53.417Z,0.00
2023-03-17T00:20:53.373Z,0.00
2023-03-17T00:21:53.354Z,0.00
2023-03-17T00:22:53.372Z,0.00
2023-03-17T00:23:53.333Z,0.00
2023-03-17T00:24:53.330Z,0.00
2023-03-17T00:25:53.317Z,0.00
2023-03-17T00:26:53.369Z,0.00
2023-03-17T00:27:53.299Z,0.00
2023-03-17T00:28:53.341Z,0.00
2023-03-17T00:29:53.283Z,0.00
2023-03-17T00:30:53.299Z,0.00
2023-03-17T00:31:53.275Z,0.00
2023-03-17T00:32:53.343Z,0.00
2023-03-17T00:33:53.235Z,0.00
2023-03-17T00:34:53.229Z,0.00
2023-03-17T00:35:53.246Z,0.00
2023-03-17T00:36:53.192Z,0.00
2023-03-17T00:37:53.187Z,0.00
2023-03-17T00:38:53.172Z,0.00
2023-03-17T00:39:53.188Z,0.00
2023-03-17T00:40:53.168Z,0.00
2023-03-17T00:41:53.149Z,0.00
2023-03-17T00:42:53.123Z,0.00
2023-03-17T00:43:53.120Z,0.00
2023-03-17T00:44:53.132Z,0.00
2023-03-17T00:45:53.106Z,0.00
2023-03-17T00:46:53.181Z,0.00
2023-03-17T00:47:53.081Z,0.00
2023-03-17T00:48:53.054Z,0.00
2023-03-17T00:49:53.072Z,0.00
2023-03-17T00:50:53.040Z,0.00
2023-03-17T00:51:53.045Z,0.00
2023-03-17T00:52:53.023Z,0.00
2023-03-17T00:53:52.991Z,0.00
2023-03-17T00:54:53.007Z,0.00
2023-03-17T00:55:53.007Z,0.00
2023-03-17T00:56:52.971Z,0.00
2023-03-17T00:57:52.969Z,0.00
2023-03-17T00:58:52.953Z,0.00
2023-03-17T00:59:52.926Z,0.00
2023-03-17T01:00:53.025Z,0.00
2023-03-17T01:01:53.054Z,0.00
2023-03-17T01:02:52.901Z,0.00
2023-03-17T01:03:52.943Z,0.00
2023-03-17T01:05:05.481Z,0.00
2023-03-17T01:05:53.858Z,0.00
2023-03-17T01:06:52.856Z,0.00
2023-03-17T01:07:52.905Z,0.00
2023-03-17T01:08:52.831Z,0.00
2023-03-17T01:09:52.836Z,0.00
2023-03-17T01:10:52.850Z,0.00
2023-03-17T01:11:52.816Z,0.00
2023-03-17T01:12:52.788Z,0.00
2023-03-17T01:13:52.802Z,0.00
2023-03-17T01:14:52.775Z,0.00
2023-03-17T01:15:52.854Z,0.00
2023-03-17T01:16:52.760Z,0.00
2023-03-17T01:17:52.723Z,0.00
2023-03-17T01:18:52.749Z,0.00
2023-03-17T01:19:52.725Z,0.00
2023-03-17T01:20:52.698Z,0.00
2023-03-17T01:21:52.718Z,0.00
2023-03-17T01:22:52.691Z,0.00
2023-03-17T01:23:52.657Z,0.00
2023-03-17T01:24:52.654Z,0.00
2023-03-17T01:25:52.642Z,0.00
2023-03-17T01:26:52.649Z,0.00
2023-03-17T01:27:52.613Z,0.00
2023-03-17T01:28:52.636Z,0.00
2023-03-17T01:29:52.591Z,0.00
2023-03-17T01:30:52.587Z,0.00
2023-03-17T01:31:52.645Z,0.00
2023-03-17T01:32:52.577Z,0.00
2023-03-17T01:33:52.565Z,0.00
2023-03-17T01:34:52.541Z,0.00
2023-03-17T01:35:52.614Z,0.00
2023-03-17T01:36:52.539Z,0.00
2023-03-17T01:37:52.518Z,0.00
2023-03-17T01:38:52.506Z,0.00
2023-03-17T01:39:52.476Z,0.00
2023-03-17T01:40:52.473Z,0.00
2023-03-17T01:41:52.474Z,0.00
2023-03-17T01:42:52.449Z,0.00
2023-03-17T01:43:52.440Z,0.00
2023-03-17T01:44:52.442Z,0.00
2023-03-17T01:45:52.455Z,0.00
2023-03-17T01:46:52.430Z,0.00
2023-03-17T01:47:52.390Z,0.00
2023-03-17T01:48:52.386Z,0.00
2023-03-17T01:49:52.379Z,0.00
2023-03-17T01:51:00.083Z,0.00
2023-03-17T01:51:52.364Z,0.00
2023-03-17T01:53:00.127Z,0.00
2023-03-17T01:53:59.507Z,0.00
2023-03-17T01:55:00.013Z,0.00
2023-03-17T01:55:59.973Z,0.00
2023-03-17T01:56:59.972Z,0.00
2023-03-17T01:58:01.273Z,0.00
2023-03-17T01:58:52.317Z,0.00
2023-03-17T01:59:59.932Z,0.00
2023-03-17T02:00:52.296Z,0.00
2023-03-17T02:01:52.232Z,0.00
2023-03-17T02:02:52.243Z,0.00
2023-03-17T02:03:52.305Z,0.00
2023-03-17T02:04:52.365Z,0.00
2023-03-17T02:05:52.203Z,0.00
2023-03-17T02:06:58.364Z,0.00
2023-03-17T02:07:53.175Z,0.00
2023-03-17T02:08:52.184Z,0.00
2023-03-17T02:09:52.167Z,0.00
2023-03-17T02:10:52.151Z,0.00
2023-03-17T02:11:52.129Z,0.00
2023-03-17T02:12:52.144Z,0.00
2023-03-17T02:13:52.108Z,0.00
2023-03-17T02:14:52.090Z,0.00
2023-03-17T02:15:52.112Z,0.00
2023-03-17T02:16:52.107Z,0.00
2023-03-17T02:17:52.089Z,0.00
2023-03-17T02:18:52.053Z,0.00
2023-03-17T02:19:52.039Z,0.00
2023-03-17T02:20:52.022Z,0.00
2023-03-17T02:21:52.084Z,0.00
2023-03-17T02:22:52.027Z,0.00
2023-03-17T02:23:51.997Z,0.00
2023-03-17T02:24:51.985Z,0.00
2023-03-17T02:25:51.990Z,0.00
2023-03-17T02:26:51.957Z,0.00
2023-03-17T02:27:51.978Z,0.00
2023-03-17T02:28:51.940Z,0.00
2023-03-17T02:29:51.929Z,0.00
2023-03-17T02:30:51.974Z,0.00
2023-03-17T02:31:51.914Z,0.00
2023-03-17T02:32:51.949Z,0.00
2023-03-17T02:33:51.920Z,0.00
2023-03-17T02:34:51.876Z,0.00
2023-03-17T02:35:51.916Z,0.00
2023-03-17T02:36:51.868Z,0.00
2023-03-17T02:37:51.841Z,0.00
2023-03-17T02:38:51.861Z,0.00
2023-03-17T02:39:51.836Z,0.00
2023-03-17T02:40:51.826Z,0.00
2023-03-17T02:41:51.800Z,0.00
2023-03-17T02:42:51.804Z,0.00
2023-03-17T02:43:51.793Z,0.00
2023-03-17T02:44:51.770Z,0.00
2023-03-17T02:45:51.816Z,0.00
2023-03-17T02:46:51.737Z,0.00
2023-03-17T02:47:51.771Z,0.00
2023-03-17T02:48:51.736Z,0.00
2023-03-17T02:49:51.718Z,0.00
2023-03-17T02:50:51.705Z,0.00
2023-03-17T02:51:51.705Z,0.00
2023-03-17T02:52:51.689Z,0.00
2023-03-17T02:53:51.664Z,0.00
2023-03-17T02:54:51.677Z,0.00
2023-03-17T02:55:51.646Z,0.00
2023-03-17T02:56:51.651Z,0.00
2023-03-17T02:57:51.658Z,0.00
2023-03-17T02:58:51.621Z,0.00
2023-03-17T02:59:51.623Z,0.00
2023-03-17T03:00:51.591Z,0.00
2023-03-17T03:01:51.607Z,0.00
2023-03-17T03:02:51.645Z,0.00
2023-03-17T03:03:51.565Z,0.00
2023-03-17T03:04:51.540Z,0.00
2023-03-17T03:05:51.529Z,0.00
2023-03-17T03:06:51.547Z,0.00
2023-03-17T03:07:51.508Z,0.00
2023-03-17T03:08:51.491Z,0.00
2023-03-17T03:09:51.517Z,0.00
2023-03-17T03:10:51.497Z,0.00
2023-03-17T03:11:51.483Z,0.00
2023-03-17T03:12:51.452Z,0.00
2023-03-17T03:13:51.463Z,0.00
2023-03-17T03:14:51.425Z,0.00
2023-03-17T03:15:51.447Z,0.00
2023-03-17T03:16:51.408Z,0.00
2023-03-17T03:17:51.396Z,0.00
2023-03-17T03:18:51.416Z,0.00
2023-03-17T03:19:51.382Z,0.00
2023-03-17T03:20:51.372Z,0.00
2023-03-17T03:21:51.392Z,0.00
2023-03-17T03:22:51.360Z,0.00
2023-03-17T03:23:51.348Z,0.00
2023-03-17T03:24:51.339Z,0.00
2023-03-17T03:25:51.313Z,0.00
2023-03-17T03:26:51.318Z,0.00
2023-03-17T03:27:51.304Z,0.00
2023-03-17T03:28:51.298Z,0.00
2023-03-17T03:29:51.280Z,0.00
2023-03-17T03:30:51.336Z,0.00
2023-03-17T03:31:51.240Z,0.00
2023-03-17T03:32:51.336Z,0.00
2023-03-17T03:33:51.245Z,0.00
2023-03-17T03:34:51.210Z,0.00
2023-03-17T03:35:51.261Z,0.00
2023-03-17T03:36:51.185Z,0.00
2023-03-17T03:37:51.195Z,0.00
2023-03-17T03:38:51.179Z,0.00
2023-03-17T03:39:51.161Z,0.00
2023-03-17T03:40:51.140Z,0.00
2023-03-17T03:41:51.148Z,0.00
2023-03-17T03:42:51.159Z,0.00
2023-03-17T03:43:51.148Z,0.00
2023-03-17T03:44:51.098Z,0.00
2023-03-17T03:45:51.098Z,0.00
2023-03-17T03:46:51.108Z,0.00
2023-03-17T03:47:51.087Z,0.00
2023-03-17T03:48:51.082Z,0.00
2023-03-17T03:49:51.068Z,0.00
2023-03-17T03:50:51.024Z,0.00
2023-03-17T03:51:51.022Z,0.00
2023-03-17T03:52:50.996Z,0.00
2023-03-17T03:53:51.000Z,0.00
2023-03-17T03:54:50.995Z,0.00
2023-03-17T03:55:50.986Z,0.00
2023-03-17T03:56:50.953Z,0.00
2023-03-17T03:57:50.969Z,0.00
2023-03-17T03:58:50.954Z,0.00
2023-03-17T03:59:50.926Z,0.00
2023-03-17T04:00:50.946Z,0.00
2023-03-17T04:01:50.921Z,0.00
2023-03-17T04:02:50.916Z,0.00
2023-03-17T04:03:50.880Z,0.00
2023-03-17T04:04:50.944Z,0.00
2023-03-17T04:05:50.884Z,0.00
2023-03-17T04:06:50.860Z,0.00
2023-03-17T04:07:50.850Z,0.00
2023-03-17T04:08:50.848Z,0.00
2023-03-17T04:09:50.820Z,0.00
2023-03-17T04:10:50.817Z,0.00
2023-03-17T04:11:50.801Z,0.00
2023-03-17T04:12:50.778Z,0.00
2023-03-17T04:13:50.782Z,0.00
2023-03-17T04:14:50.780Z,0.00
2023-03-17T04:15:50.823Z,0.00
2023-03-17T04:16:50.813Z,0.00
2023-03-17T04:17:50.727Z,0.00
2023-03-17T04:18:50.777Z,0.00
2023-03-17T04:19:50.711Z,0.00
2023-03-17T04:20:50.722Z,0.00
2023-03-17T04:21:52.345Z,0.00
2023-03-17T04:22:50.666Z,0.00
2023-03-17T04:23:50.668Z,0.00
2023-03-17T04:24:50.639Z,0.00
2023-03-17T04:25:50.672Z,0.00
2023-03-17T04:26:50.635Z,0.00
2023-03-17T04:27:50.613Z,0.00
2023-03-17T04:28:50.617Z,0.00
2023-03-17T04:29:50.591Z,0.00
2023-03-17T04:30:50.608Z,0.00
2023-03-17T04:31:50.611Z,0.00
2023-03-17T04:32:50.617Z,0.00
2023-03-17T04:33:50.579Z,0.00
2023-03-17T04:34:50.553Z,0.00
2023-03-17T04:35:50.563Z,0.00
2023-03-17T04:36:50.524Z,0.00
2023-03-17T04:37:50.511Z,0.00
2023-03-17T04:38:50.481Z,0.00
2023-03-17T04:39:50.476Z,0.00
2023-03-17T04:40:50.507Z,0.00
2023-03-17T04:41:50.460Z,0.00
2023-03-17T04:42:50.461Z,0.00
2023-03-17T04:43:50.485Z,0.00
2023-03-17T04:44:50.417Z,0.00
2023-03-17T04:45:50.514Z,0.00
2023-03-17T04:46:50.420Z,0.00
2023-03-17T04:47:50.414Z,0.00
2023-03-17T04:48:50.400Z,0.00
2023-03-17T04:49:50.378Z,0.00
2023-03-17T04:50:50.374Z,0.00
2023-03-17T04:51:50.343Z,4.00
2023-03-17T04:52:50.327Z,4.00
2023-03-17T04:53:50.331Z,0.00
2023-03-17T04:54:50.325Z,0.00
2023-03-17T04:55:50.316Z,0.00
2023-03-17T04:56:50.291Z,4.00
2023-03-17T04:57:50.275Z,0.00
2023-03-17T04:58:50.260Z,4.00
2023-03-17T04:59:50.301Z,4.00
2023-03-17T05:00:50.271Z,4.00
2023-03-17T05:01:50.394Z,4.00
2023-03-17T05:02:50.242Z,4.00
2023-03-17T05:03:50.213Z,8.00
2023-03-17T05:04:50.196Z,8.00
2023-03-17T05:05:50.204Z,8.00
2023-03-17T05:06:50.214Z,12.00
2023-03-17T05:07:50.170Z,16.00
2023-03-17T05:08:50.147Z,20.00
2023-03-17T05:09:50.143Z,20.00
2023-03-17T05:10:50.144Z,28.00
2023-03-17T05:11:50.128Z,32.00
2023-03-17T05:12:50.138Z,32.00
2023-03-17T05:13:50.118Z,36.00
2023-03-17T05:14:50.088Z,40.00
2023-03-17T05:15:50.095Z,44.00
2023-03-17T05:16:50.158Z,44.00
2023-03-17T05:17:50.064Z,48.00
2023-03-17T05:18:50.064Z,56.00
2023-03-17T05:19:50.043Z,60.00
2023-03-17T05:20:50.018Z,68.00
2023-03-17T05:21:50.030Z,76.00
2023-03-17T05:22:50.011Z,84.00
2023-03-17T05:23:50.006Z,92.00
2023-03-17T05:24:49.993Z,100.00
2023-03-17T05:25:49.970Z,112.00
2023-03-17T05:26:49.948Z,124.00
2023-03-17T05:27:49.942Z,132.00
2023-03-17T05:28:49.941Z,148.00
2023-03-17T05:29:49.918Z,164.00
2023-03-17T05:30:49.943Z,176.00
2023-03-17T05:31:49.900Z,196.00
2023-03-17T05:32:49.918Z,212.00
2023-03-17T05:33:49.899Z,228.00
2023-03-17T05:34:49.921Z,252.00
2023-03-17T05:35:49.873Z,264.00
2023-03-17T05:36:49.851Z,284.00
2023-03-17T05:37:49.834Z,300.00
2023-03-17T05:38:49.831Z,316.00
2023-03-17T05:39:49.815Z,336.00
2023-03-17T05:40:49.790Z,352.00
2023-03-17T05:41:49.790Z,372.00
2023-03-17T05:42:49.782Z,400.00
2023-03-17T05:43:49.785Z,432.00
2023-03-17T05:44:49.744Z,464.00
2023-03-17T05:45:49.801Z,500.00
2023-03-17T05:46:49.752Z,536.00
2023-03-17T05:47:49.716Z,576.00
2023-03-17T05:48:49.714Z,616.00
2023-03-17T05:49:49.698Z,656.00
2023-03-17T05:50:49.705Z,692.00
2023-03-17T05:51:49.702Z,724.00
2023-03-17T05:52:49.653Z,760.00
2023-03-17T05:53:49.652Z,796.00
2023-03-17T05:54:49.654Z,820.00
2023-03-17T05:55:49.632Z,848.00
2023-03-17T05:56:49.633Z,868.00
2023-03-17T05:57:49.608Z,888.00
2023-03-17T05:58:49.596Z,908.00
2023-03-17T05:59:49.588Z,920.00
2023-03-17T06:00:49.606Z,932.00
2023-03-17T06:01:49.584Z,956.00
2023-03-17T06:02:49.548Z,980.00
2023-03-17T06:03:49.636Z,1012.00
2023-03-17T06:04:49.524Z,1060.00
2023-03-17T06:05:49.544Z,1100.00
2023-03-17T06:06:49.523Z,1136.00
2023-03-17T06:07:54.960Z,1172.00
2023-03-17T06:08:50.478Z,1204.00
2023-03-17T06:09:49.498Z,1236.00
2023-03-17T06:10:49.479Z,1272.00
2023-03-17T06:11:49.455Z,1316.00
2023-03-17T06:12:49.466Z,1364.00
2023-03-17T06:13:49.450Z,1404.00
2023-03-17T06:14:49.418Z,1448.00
2023-03-17T06:15:49.490Z,1500.00
2023-03-17T06:16:49.400Z,1552.00
2023-03-17T06:17:49.398Z,1596.00
2023-03-17T06:18:49.384Z,1648.00
2023-03-17T06:19:49.574Z,1700.00
2023-03-17T06:20:49.375Z,1744.00
2023-03-17T06:21:49.364Z,1788.00
2023-03-17T06:23:03.400Z,1820.00
2023-03-17T06:23:50.338Z,1860.00
2023-03-17T06:24:49.324Z,1904.00
2023-03-17T06:25:49.310Z,1940.00
2023-03-17T06:26:49.292Z,1968.00
2023-03-17T06:27:49.271Z,1996.00
2023-03-17T06:28:49.276Z,2012.00
2023-03-17T06:29:49.245Z,2032.00
2023-03-17T06:30:49.331Z,2060.00
2023-03-17T06:31:49.225Z,2084.00
2023-03-17T06:32:49.290Z,2112.00
2023-03-17T06:33:49.224Z,2136.00
2023-03-17T06:34:49.225Z,2152.00
2023-03-17T06:35:49.265Z,2176.00
2023-03-17T06:36:49.189Z,2204.00
2023-03-17T06:37:49.202Z,2224.00
2023-03-17T06:38:49.188Z,2252.00
2023-03-17T06:39:49.156Z,2280.00
2023-03-17T06:40:49.141Z,2324.00
2023-03-17T06:41:49.113Z,2372.00
2023-03-17T06:42:49.149Z,2404.00
2023-03-17T06:43:49.092Z,2456.00
2023-03-17T06:44:49.138Z,2504.00
2023-03-17T06:45:49.116Z,2600.00
2023-03-17T06:46:49.106Z,2748.00
2023-03-17T06:47:49.048Z,2904.00
2023-03-17T06:48:49.056Z,2996.00
2023-03-17T06:49:49.024Z,3100.00
2023-03-17T06:50:49.058Z,3124.00
2023-03-17T06:51:49.023Z,3156.00
2023-03-17T06:52:49.026Z,3240.00
2023-03-17T06:53:49.019Z,3348.00
2023-03-17T06:54:48.997Z,3468.00
2023-03-17T06:55:48.973Z,3572.00
2023-03-17T06:56:48.976Z,3448.00
2023-03-17T06:57:51.105Z,3280.00
2023-03-17T06:58:48.927Z,3296.00
2023-03-17T06:59:48.909Z,3328.00
2023-03-17T07:00:49.070Z,3376.00
2023-03-17T07:01:48.982Z,3540.00
2023-03-17T07:02:48.892Z,3868.00
2023-03-17T07:03:48.874Z,4248.00
2023-03-17T07:04:48.939Z,4536.00
2023-03-17T07:05:48.871Z,4464.00
2023-03-17T07:06:48.855Z,3780.00
2023-03-17T07:07:48.821Z,2976.00
2023-03-17T07:08:48.812Z,2404.00
2023-03-17T07:09:48.838Z,2328.00
2023-03-17T07:10:48.818Z,2032.00
2023-03-17T07:11:48.797Z,1880.00
2023-03-17T07:12:48.800Z,1884.00
2023-03-17T07:13:48.756Z,2068.00
2023-03-17T07:14:48.745Z,2500.00
2023-03-17T07:15:48.853Z,3008.00
2023-03-17T07:16:48.800Z,3208.00
2023-03-17T07:17:48.766Z,2904.00
2023-03-17T07:18:48.749Z,2572.00
2023-03-17T07:19:48.688Z,2560.00
2023-03-17T07:20:48.697Z,2568.00
2023-03-17T07:21:48.701Z,2284.00
2023-03-17T07:22:48.687Z,2116.00
2023-03-17T07:23:48.638Z,2168.00
2023-03-17T07:24:48.678Z,2284.00
2023-03-17T07:25:48.617Z,2316.00
2023-03-17T07:26:48.635Z,2384.00
2023-03-17T07:27:48.602Z,2600.00
2023-03-17T07:28:48.617Z,2692.00
2023-03-17T07:29:48.595Z,2688.00
2023-03-17T07:30:48.598Z,2608.00
2023-03-17T07:31:48.709Z,2564.00
2023-03-17T07:32:48.649Z,2460.00
2023-03-17T07:33:48.547Z,2372.00
2023-03-17T07:34:48.535Z,2356.00
2023-03-17T07:35:48.645Z,2344.00
2023-03-17T07:36:48.561Z,2376.00
2023-03-17T07:37:48.488Z,2408.00
2023-03-17T07:38:48.500Z,2360.00
2023-03-17T07:39:48.459Z,2328.00
2023-03-17T07:40:48.454Z,2260.00
2023-03-17T07:41:48.441Z,2172.00
2023-03-17T07:42:48.452Z,2092.00
2023-03-17T07:43:48.437Z,2044.00
2023-03-17T07:44:48.422Z,2004.00
2023-03-17T07:45:48.496Z,1960.00
2023-03-17T07:46:48.389Z,1880.00
2023-03-17T07:47:48.414Z,1856.00
2023-03-17T07:48:48.386Z,1888.00
2023-03-17T07:49:48.372Z,1924.00
2023-03-17T07:50:48.390Z,1928.00
2023-03-17T07:51:48.350Z,1936.00
2023-03-17T07:52:48.330Z,1920.00
2023-03-17T07:53:48.314Z,1940.00
2023-03-17T07:54:48.318Z,1968.00
2023-03-17T07:55:48.318Z,2040.00
2023-03-17T07:56:48.284Z,2120.00
2023-03-17T07:57:48.351Z,2188.00
2023-03-17T07:58:55.957Z,2224.00
2023-03-17T07:59:48.312Z,2228.00
2023-03-17T08:00:48.247Z,2212.00
2023-03-17T08:01:48.314Z,2144.00
2023-03-17T08:02:59.612Z,2124.00
2023-03-17T08:03:49.223Z,2200.00
2023-03-17T08:04:48.206Z,2196.00
2023-03-17T08:05:48.177Z,2212.00
2023-03-17T08:06:48.190Z,2296.00
2023-03-17T08:07:48.408Z,2320.00
2023-03-17T08:08:48.241Z,2400.00
2023-03-17T08:09:48.324Z,2456.00
2023-03-17T08:10:48.154Z,2480.00
2023-03-17T08:11:48.697Z,2520.00
2023-03-17T08:12:48.130Z,2528.00
2023-03-17T08:13:48.101Z,2536.00
2023-03-17T08:14:48.095Z,2480.00
2023-03-17T08:15:48.076Z,2500.00
2023-03-17T08:16:48.247Z,2488.00
2023-03-17T08:17:48.042Z,2480.00
2023-03-17T08:18:48.044Z,2480.00
2023-03-17T08:19:48.028Z,2476.00
2023-03-17T08:20:48.032Z,2492.00
2023-03-17T08:21:47.993Z,2492.00
2023-03-17T08:22:48.022Z,2468.00
2023-03-17T08:23:47.994Z,2436.00
2023-03-17T08:24:48.011Z,2408.00
2023-03-17T08:25:48.036Z,2400.00
2023-03-17T08:26:47.958Z,2352.00
2023-03-17T08:27:47.931Z,2344.00
2023-03-17T08:28:47.963Z,2332.00
2023-03-17T08:29:47.896Z,2372.00
2023-03-17T08:30:50.340Z,2380.00
2023-03-17T08:31:48.006Z,2384.00
2023-03-17T08:32:47.975Z,2384.00
2023-03-17T08:33:47.857Z,2376.00
2023-03-17T08:34:47.880Z,2340.00
2023-03-17T08:35:47.881Z,2280.00
2023-03-17T08:36:47.845Z,2196.00
2023-03-17T08:37:47.813Z,2144.00
2023-03-17T08:38:47.833Z,2108.00
2023-03-17T08:39:47.787Z,2076.00
2023-03-17T08:40:47.789Z,2028.00
2023-03-17T08:41:47.781Z,1984.00
2023-03-17T08:42:47.779Z,1928.00
2023-03-17T08:43:47.773Z,1860.00
2023-03-17T08:44:48.700Z,1776.00
2023-03-17T08:45:47.769Z,1808.00
2023-03-17T08:46:47.775Z,1808.00
2023-03-17T08:47:47.744Z,1800.00
2023-03-17T08:48:47.732Z,1776.00
2023-03-17T08:49:47.719Z,1724.00
2023-03-17T08:50:47.677Z,1768.00
2023-03-17T08:51:47.670Z,1796.00
2023-03-17T08:52:47.708Z,1792.00
2023-03-17T08:53:47.639Z,1776.00
2023-03-17T08:54:47.667Z,1764.00
2023-03-17T08:55:47.644Z,1764.00
2023-03-17T08:56:47.619Z,1756.00
2023-03-17T08:57:47.600Z,1740.00
2023-03-17T08:58:47.593Z,1720.00
2023-03-17T08:59:47.578Z,1728.00
2023-03-17T09:00:47.575Z,1716.00
2023-03-17T09:01:47.636Z,1712.00
2023-03-17T09:02:47.667Z,1712.00
2023-03-17T09:03:47.524Z,1704.00
2023-03-17T09:04:47.543Z,1700.00
2023-03-17T09:05:47.496Z,1696.00
2023-03-17T09:07:02.367Z,1720.00
2023-03-17T09:07:48.553Z,1732.00
2023-03-17T09:08:47.555Z,1772.00
2023-03-17T09:09:47.459Z,1812.00
2023-03-17T09:10:47.444Z,1820.00
2023-03-17T09:11:47.428Z,1840.00
2023-03-17T09:12:47.450Z,1844.00
2023-03-17T09:13:47.426Z,1864.00
2023-03-17T09:14:49.189Z,1844.00
2023-03-17T09:15:47.428Z,1868.00
2023-03-17T09:16:47.380Z,1860.00
2023-03-17T09:17:47.477Z,1788.00
2023-03-17T09:18:47.377Z,1808.00
2023-03-17T09:19:47.335Z,1792.00
2023-03-17T09:20:47.348Z,1820.00
2023-03-17T09:21:47.340Z,1808.00
2023-03-17T09:22:47.306Z,1772.00
2023-03-17T09:23:47.296Z,1700.00
2023-03-17T09:24:47.324Z,1748.00
2023-03-17T09:25:47.272Z,1740.00
2023-03-17T09:26:47.282Z,1688.00
2023-03-17T09:27:47.244Z,1684.00
2023-03-17T09:28:47.236Z,1628.00
2023-03-17T09:29:47.300Z,1600.00
2023-03-17T09:30:47.303Z,1648.00
2023-03-17T09:31:47.232Z,1668.00
2023-03-17T09:32:47.248Z,1632.00
2023-03-17T09:33:47.181Z,1588.00
2023-03-17T09:34:48.160Z,1612.00
2023-03-17T09:35:47.208Z,1604.00
2023-03-17T09:36:47.163Z,1600.00
2023-03-17T09:37:47.175Z,1600.00
2023-03-17T09:38:47.142Z,1612.00
2023-03-17T09:39:47.110Z,1596.00
2023-03-17T09:40:47.106Z,1580.00
2023-03-17T09:41:47.102Z,1584.00
2023-03-17T09:42:47.096Z,1580.00
2023-03-17T09:43:47.076Z,1564.00
2023-03-17T09:44:47.079Z,1564.00
2023-03-17T09:45:47.041Z,1556.00
2023-03-17T09:46:47.234Z,1552.00
2023-03-17T09:47:47.054Z,1552.00
2023-03-17T09:48:47.022Z,1556.00
2023-03-17T09:49:47.009Z,1520.00
2023-03-17T09:50:47.020Z,1544.00
2023-03-17T09:51:47.000Z,1520.00
2023-03-17T09:52:47.609Z,1508.00
2023-03-17T09:53:46.951Z,1496.00
2023-03-17T09:54:46.955Z,1488.00
2023-03-17T09:55:46.929Z,1480.00
2023-03-17T09:56:46.951Z,1464.00
2023-03-17T09:57:46.947Z,1476.00
2023-03-17T09:58:47.687Z,1476.00
2023-03-17T09:59:46.891Z,1476.00
2023-03-17T10:00:46.909Z,1472.00
2023-03-17T10:01:46.964Z,1472.00
2023-03-17T10:02:46.857Z,1480.00
2023-03-17T10:03:46.836Z,1484.00
2023-03-17T10:04:46.867Z,1480.00
2023-03-17T10:05:46.942Z,1480.00
2023-03-17T10:06:46.843Z,1504.00
2023-03-17T10:07:46.792Z,1512.00
2023-03-17T10:08:46.787Z,1512.00
2023-03-17T10:09:46.778Z,1516.00
2023-03-17T10:10:46.800Z,1520.00
2023-03-17T10:11:46.746Z,1524.00
2023-03-17T10:12:46.760Z,1524.00
2023-03-17T10:13:46.725Z,1524.00
2023-03-17T10:14:46.727Z,1524.00
2023-03-17T10:15:46.756Z,1532.00
2023-03-17T10:16:46.697Z,1544.00
2023-03-17T10:17:46.677Z,1528.00
2023-03-17T10:18:46.692Z,1536.00
2023-03-17T10:19:46.654Z,1544.00
2023-03-17T10:20:46.678Z,1580.00
2023-03-17T10:21:46.711Z,1596.00
2023-03-17T10:22:46.656Z,1596.00
2023-03-17T10:23:46.610Z,1596.00
2023-03-17T10:24:46.616Z,1608.00
2023-03-17T10:25:46.626Z,1636.00
2023-03-17T10:26:46.585Z,1652.00
2023-03-17T10:27:46.585Z,1664.00
2023-03-17T10:28:46.577Z,1688.00
2023-03-17T10:29:48.463Z,1708.00
2023-03-17T10:30:46.574Z,1720.00
2023-03-17T10:31:46.589Z,1704.00
2023-03-17T10:32:46.602Z,1708.00
2023-03-17T10:33:46.499Z,1716.00
2023-03-17T10:34:46.492Z,1728.00
2023-03-17T10:35:46.522Z,1728.00
2023-03-17T10:36:46.483Z,1704.00
2023-03-17T10:37:46.462Z,1720.00
2023-03-17T10:38:46.457Z,1760.00
2023-03-17T10:39:46.439Z,1736.00
2023-03-17T10:40:46.437Z,1736.00
2023-03-17T10:41:46.414Z,1736.00
2023-03-17T10:42:46.415Z,1740.00
2023-03-17T10:43:46.414Z,1788.00
2023-03-17T10:44:46.375Z,1852.00
2023-03-17T10:45:46.383Z,1884.00
2023-03-17T10:46:46.467Z,1888.00
2023-03-17T10:47:46.349Z,1888.00
2023-03-17T10:48:46.366Z,1904.00
2023-03-17T10:49:46.332Z,1856.00
2023-03-17T10:50:48.511Z,1860.00
2023-03-17T10:51:46.300Z,1872.00
2023-03-17T10:52:46.298Z,1908.00
2023-03-17T10:53:46.298Z,1900.00
2023-03-17T10:54:46.295Z,1948.00
2023-03-17T10:55:46.300Z,1972.00
2023-03-17T10:56:46.277Z,2000.00
2023-03-17T10:57:46.255Z,2008.00
2023-03-17T10:58:46.234Z,2020.00
2023-03-17T10:59:46.214Z,2064.00
2023-03-17T11:00:46.274Z,2096.00
2023-03-17T11:01:46.193Z,2128.00
2023-03-17T11:02:46.233Z,2136.00
2023-03-17T11:03:46.261Z,2204.00
2023-03-17T11:04:46.150Z,2228.00
2023-03-17T11:05:46.141Z,2192.00
2023-03-17T11:06:46.151Z,2108.00
2023-03-17T11:07:46.130Z,2164.00
2023-03-17T11:08:46.124Z,2124.00
2023-03-17T11:09:46.130Z,2204.00
2023-03-17T11:10:46.127Z,2196.00
2023-03-17T11:11:46.093Z,2196.00
2023-03-17T11:12:46.077Z,2180.00
2023-03-17T11:13:46.057Z,2204.00
2023-03-17T11:14:46.038Z,2196.00
2023-03-17T11:15:46.056Z,2212.00
2023-03-17T11:16:46.097Z,2172.00
2023-03-17T11:17:46.036Z,2204.00
2023-03-17T11:18:46.008Z,2204.00
2023-03-17T11:19:46.027Z,2288.00
2023-03-17T11:20:45.998Z,2296.00
2023-03-17T11:21:46.170Z,2304.00
2023-03-17T11:22:45.971Z,2320.00
2023-03-17T11:23:45.970Z,2296.00
2023-03-17T11:24:45.939Z,2364.00
2023-03-17T11:25:45.968Z,2388.00
2023-03-17T11:26:45.929Z,2384.00
2023-03-17T11:27:45.920Z,2348.00
2023-03-17T11:28:45.932Z,2316.00
2023-03-17T11:29:45.879Z,2420.00
2023-03-17T11:30:45.861Z,2424.00
2023-03-17T11:31:45.917Z,2408.00
2023-03-17T11:32:45.898Z,2336.00
2023-03-17T11:33:45.849Z,2316.00
2023-03-17T11:34:45.823Z,2312.00
2023-03-17T11:35:45.856Z,2292.00
2023-03-17T11:36:45.794Z,2296.00
2023-03-17T11:37:45.817Z,2396.00
2023-03-17T11:38:45.773Z,2424.00
2023-03-17T11:39:45.771Z,2388.00
2023-03-17T11:40:45.750Z,2396.00
2023-03-17T11:41:45.746Z,2288.00
2023-03-17T11:42:45.769Z,2220.00
2023-03-17T11:43:45.728Z,2328.00
2023-03-17T11:44:45.707Z,2376.00
2023-03-17T11:45:45.720Z,2376.00
2023-03-17T11:46:45.685Z,2364.00
2023-03-17T11:47:45.703Z,2544.00
2023-03-17T11:48:45.673Z,2560.00
2023-03-17T11:49:45.686Z,2620.00
2023-03-17T11:50:45.636Z,2668.00
2023-03-17T11:51:45.629Z,2748.00
2023-03-17T11:52:45.632Z,2796.00
2023-03-17T11:53:45.606Z,2816.00
2023-03-17T11:54:45.589Z,2836.00
2023-03-17T11:55:45.621Z,2900.00
2023-03-17T11:56:45.586Z,2976.00
2023-03-17T11:57:45.564Z,3052.00
2023-03-17T11:58:45.567Z,3064.00
2023-03-17T11:59:45.533Z,3188.00
2023-03-17T12:00:54.373Z,3184.00
2023-03-17T12:01:45.525Z,3136.00
2023-03-17T12:02:45.494Z,2956.00
2023-03-17T12:03:45.805Z,2980.00
2023-03-17T12:04:45.610Z,3108.00
2023-03-17T12:05:45.465Z,3320.00
2023-03-17T12:06:56.798Z,3336.00
2023-03-17T12:07:45.444Z,3260.00
2023-03-17T12:08:53.263Z,3436.00
2023-03-17T12:09:45.442Z,3572.00
2023-03-17T12:10:45.424Z,3532.00
2023-03-17T12:11:45.429Z,3652.00
2023-03-17T12:12:45.383Z,3728.00
2023-03-17T12:15:01.189Z,3904.00
2023-03-17T12:16:01.129Z,3916.00
2023-03-17T12:17:08.225Z,3944.00
2023-03-17T12:18:01.025Z,3940.00
2023-03-17T12:19:01.015Z,3844.00
2023-03-17T12:20:01.004Z,3880.00
2023-03-17T12:21:00.980Z,4116.00
2023-03-17T12:22:00.970Z,4384.00
2023-03-17T12:23:01.011Z,4384.00
2023-03-17T12:24:01.004Z,4260.00
2023-03-17T12:25:01.079Z,4376.00
2023-03-17T12:26:00.951Z,4604.00
2023-03-17T12:27:00.930Z,4680.00
2023-03-17T12:28:00.922Z,4756.00
2023-03-17T12:29:00.922Z,4564.00
2023-03-17T12:30:00.928Z,4308.00
2023-03-17T12:31:00.930Z,4424.00
2023-03-17T12:32:00.858Z,4428.00
2023-03-17T12:33:00.886Z,4620.00
2023-03-17T12:34:00.847Z,4544.00
2023-03-17T12:35:00.926Z,4804.00
2023-03-17T12:36:00.817Z,4712.00
2023-03-17T12:37:00.794Z,4644.00